Wilson Gdynia — 8PSA — position and weather

sailwx.info

Track history (hours):
 
Tides and Currents Weather Stations Pressure Air Temp Water Temp Dewpoint Dewpoint Depression Visibility Wind Speed Wind Dir Waves Ship Positions

Wilson Gdynia

Last reported at 2017-Mar-28 11:31 UTC. Time now 2017-Mar-28 12:06 UTC.
Position N 60°49' E 005°03'.

Length 88 m; draft 4 m.

Type: Cargo ship. MMSI: 314192000.

Date/timePositionNaut miles runAvg speedWind from/ knotsBaromVisibWave heightAir tempDewpointWater temp
2017-Mar-28 11:31N 60°49' E 005°03'0 0.0
2017-Mar-28 10:31N 60°49' E 005°03'0 0.0
2017-Mar-28 09:33N 60°49' E 005°03'7 6.8
2017-Mar-28 08:34N 60°50' E 004°49'7 7.1
2017-Mar-28 07:33N 60°45' E 004°41'9 9.4
2017-Mar-28 06:33N 60°36' E 004°31'19 9.1
2017-Mar-28 04:25N 60°17' E 004°27'9 9.8
2017-Mar-28 03:33N 60°12' E 004°42'1110.6
2017-Mar-28 02:33N 60°09' E 005°02'9 8.6
2017-Mar-28 01:33N 60°06' E 005°18'1010.4
2017-Mar-28 00:33N 59°57' E 005°27'9 9.1
2017-Mar-27 23:33N 59°49' E 005°37'1211.6
2017-Mar-27 22:32N 59°59' E 005°51'1111.1
2017-Mar-27 21:33N 60°07' E 006°06'1010.1
2017-Mar-27 20:33N 60°16' E 006°12'1110.7
2017-Mar-27 19:33N 60°25' E 006°25'1 0.8
2017-Mar-27 18:32N 60°26' E 006°26'0 0.0
2017-Mar-27 17:32N 60°26' E 006°26'0 0.0
2017-Mar-27 16:29N 60°26' E 006°26'0 0.0
2017-Mar-27 15:33N 60°26' E 006°26'0 0.0
2017-Mar-27 14:33N 60°26' E 006°26'0 0.0
2017-Mar-27 13:33N 60°26' E 006°26'0 0.0
2017-Mar-27 12:33N 60°26' E 006°26'0 0.0
2017-Mar-27 11:33N 60°26' E 006°26'0 0.0
2017-Mar-27 10:33N 60°26' E 006°26'0 0.0
2017-Mar-27 09:33N 60°26' E 006°26'0 0.0
2017-Mar-27 08:33N 60°26' E 006°26'0 0.0
2017-Mar-27 07:33N 60°26' E 006°26'0 0.0
2017-Mar-27 06:33N 60°26' E 006°26'0 0.0
2017-Mar-27 05:33N 60°26' E 006°26'0 0.0
2017-Mar-27 03:24N 60°26' E 006°26'0 0.0
2017-Mar-27 02:33N 60°26' E 006°26'0 0.0
2017-Mar-27 01:33N 60°26' E 006°26'0 0.0
2017-Mar-27 00:33N 60°26' E 006°26'0 0.0
2017-Mar-26 23:33N 60°26' E 006°26'0 0.0
2017-Mar-26 22:33N 60°26' E 006°26'0 0.0
2017-Mar-26 21:33N 60°26' E 006°26'0 0.0
2017-Mar-26 20:33N 60°26' E 006°26'0 0.0
2017-Mar-26 19:33N 60°26' E 006°26'0 0.0
2017-Mar-26 18:33N 60°26' E 006°26'0 0.0
2017-Mar-26 17:33N 60°26' E 006°26'0 0.0
2017-Mar-26 16:33N 60°26' E 006°26'0 0.0
2017-Mar-26 15:33N 60°26' E 006°26'0 0.0
2017-Mar-26 14:33N 60°26' E 006°26'0 0.0
2017-Mar-26 13:33N 60°26' E 006°26'0 0.0
2017-Mar-26 12:33N 60°26' E 006°26'0 0.0
2017-Mar-26 11:33N 60°26' E 006°26'0 0.0
2017-Mar-26 10:33N 60°26' E 006°26'0 0.0
2017-Mar-26 09:33N 60°26' E 006°26'0 0.0
2017-Mar-26 08:33N 60°26' E 006°26'0 0.0
2017-Mar-26 07:33N 60°26' E 006°26'0 0.0
2017-Mar-26 06:33N 60°26' E 006°26'0 0.0
2017-Mar-26 05:33N 60°26' E 006°26'0 0.0
2017-Mar-26 04:33N 60°26' E 006°26'0 0.0
2017-Mar-26 03:33N 60°26' E 006°26'0 0.0
2017-Mar-26 02:33N 60°26' E 006°26'0 0.0
2017-Mar-26 01:33N 60°26' E 006°26'0 0.3
2017-Mar-26 00:33N 60°26' E 006°26'9 9.0
2017-Mar-25 23:33N 60°19' E 006°14'10 9.8
2017-Mar-25 22:33N 60°10' E 006°05'10 9.9
2017-Mar-25 21:33N 60°01' E 005°56'1010.2
2017-Mar-25 20:33N 59°53' E 005°43'1010.3
2017-Mar-25 19:33N 59°45' E 005°31'1010.1
2017-Mar-25 18:33N 59°37' E 005°18'9 9.5
2017-Mar-25 17:33N 59°28' E 005°13'1010.0
2017-Mar-25 16:33N 59°19' E 005°20'9 8.8
2017-Mar-25 15:33N 59°10' E 005°22'8 7.9
2017-Mar-25 14:34N 59°02' E 005°20'9 8.6
2017-Mar-25 13:34N 58°54' E 005°17'9 8.6
2017-Mar-25 12:34N 58°45' E 005°15'9 8.9
2017-Mar-25 11:33N 58°36' E 005°12'207 8.9
2017-Mar-24 12:27N 55°10' E 005°18'9 9.6
2017-Mar-24 11:31N 55°01' E 005°17'195 8.5
2017-Mar-23 12:33N 51°58' E 003°23'1010.0
2017-Mar-23 11:33N 51°49' E 003°18'8 7.6
2017-Mar-23 10:33N 51°41' E 003°19'1010.5
2017-Mar-23 09:33N 51°32' E 003°26'9 8.8
2017-Mar-23 08:29N 51°26' E 003°38'3 0.2
2017-Mar-22 15:08N 51°27' E 003°42'1 0.0
2017-Mar-21 16:08N 51°28' E 003°42'4 5.2
2017-Mar-21 15:25N 51°26' E 003°36'88 8.7
2017-Mar-21 05:21N 52°34' E 002°06'8 9.7
2017-Mar-21 04:33N 52°40' E 001°59'1010.3
2017-Mar-21 03:34N 52°48' E 001°49'1111.1
2017-Mar-21 02:34N 52°57' E 001°37'1111.2
2017-Mar-21 01:33N 53°05' E 001°24'1111.1
2017-Mar-21 00:33N 53°13' E 001°11'2210.8
2017-Mar-20 22:33N 53°25' E 000°41'1110.9
2017-Mar-20 21:33N 53°29' E 000°24'9 9.5
2017-Mar-20 20:33N 53°33' E 000°09'8 8.5
2017-Mar-20 19:33N 53°36' W 000°04'5 4.7
2017-Mar-20 18:33N 53°38' W 000°11'0 0.3
2017-Mar-20 17:32N 53°38' W 000°12'0 0.0
2017-Mar-20 16:29N 53°38' W 000°12'0 0.0
2017-Mar-20 15:32N 53°38' W 000°12'0 0.0
2017-Mar-20 13:23N 53°38' W 000°12'0 0.0
2017-Mar-19 22:17N 53°38' W 000°12'0 0.0
2017-Mar-19 21:29N 53°38' W 000°12'0 0.0
2017-Mar-19 19:05N 53°38' W 000°12'0 0.0
2017-Mar-19 18:32N 53°38' W 000°12'0 0.0
2017-Mar-19 17:32N 53°38' W 000°12'0 0.0
2017-Mar-19 16:20N 53°38' W 000°12'0 0.0
2017-Mar-19 15:24N 53°38' W 000°12'1 0.7
2017-Mar-19 14:34N 53°38' W 000°11'7 6.6
2017-Mar-19 13:33N 53°35' W 000°01'7 7.2
2017-Mar-19 12:33N 53°33' E 000°11'8 8.1
2017-Mar-19 11:33N 53°36' E 000°23'0 0.1
2017-Mar-19 10:32N 53°36' E 000°24'0 0.1
2017-Mar-19 09:29N 53°36' E 000°24'0 0.0
2017-Mar-19 08:32N 53°36' E 000°24'0 0.0
2017-Mar-19 07:33N 53°36' E 000°24'5 4.6
2017-Mar-19 06:25N 53°41' E 000°22'19 6.4
2017-Mar-19 03:27N 53°59' E 000°10'7 8.1
2017-Mar-19 02:33N 54°05' E 000°06'8 8.0
2017-Mar-19 01:33N 54°12' W 000°00'8 8.0
2017-Mar-19 00:33N 54°18' W 000°09'8 7.9
2017-Mar-18 23:33N 54°24' W 000°18'7 7.3
2017-Mar-18 22:33N 54°30' W 000°27'32 8.0
2017-Mar-18 18:33N 54°51' W 001°08'8 6.1
2017-Mar-18 17:11N 54°54' W 001°22'  
Track history (hours):
 
Tides and Currents Weather Stations Pressure Air Temp Water Temp Dewpoint Dewpoint Depression Visibility Wind Speed Wind Dir Waves Ship Positions

Wilson Gdynia

Last reported at 2017-Mar-28 11:31 UTC. Time now 2017-Mar-28 12:06 UTC.
Position N 60°49' E 005°03'.

Length 88 m; draft 4 m.

Type: Cargo ship. MMSI: 314192000.

Date/timePositionNaut miles runAvg speedWind from/ knotsBaromVisibWave heightAir tempDewpointWater temp
2017-Mar-28 11:31N 60°49' E 005°03'0 0.0
2017-Mar-28 10:31N 60°49' E 005°03'0 0.0
2017-Mar-28 09:33N 60°49' E 005°03'7 6.8
2017-Mar-28 08:34N 60°50' E 004°49'7 7.1
2017-Mar-28 07:33N 60°45' E 004°41'9 9.4
2017-Mar-28 06:33N 60°36' E 004°31'19 9.1
2017-Mar-28 04:25N 60°17' E 004°27'9 9.8
2017-Mar-28 03:33N 60°12' E 004°42'1110.6
2017-Mar-28 02:33N 60°09' E 005°02'9 8.6
2017-Mar-28 01:33N 60°06' E 005°18'1010.4
2017-Mar-28 00:33N 59°57' E 005°27'9 9.1
2017-Mar-27 23:33N 59°49' E 005°37'1211.6
2017-Mar-27 22:32N 59°59' E 005°51'1111.1
2017-Mar-27 21:33N 60°07' E 006°06'1010.1
2017-Mar-27 20:33N 60°16' E 006°12'1110.7
2017-Mar-27 19:33N 60°25' E 006°25'1 0.8
2017-Mar-27 18:32N 60°26' E 006°26'0 0.0
2017-Mar-27 17:32N 60°26' E 006°26'0 0.0
2017-Mar-27 16:29N 60°26' E 006°26'0 0.0
2017-Mar-27 15:33N 60°26' E 006°26'0 0.0
2017-Mar-27 14:33N 60°26' E 006°26'0 0.0
2017-Mar-27 13:33N 60°26' E 006°26'0 0.0
2017-Mar-27 12:33N 60°26' E 006°26'0 0.0
2017-Mar-27 11:33N 60°26' E 006°26'0 0.0
2017-Mar-27 10:33N 60°26' E 006°26'0 0.0
2017-Mar-27 09:33N 60°26' E 006°26'0 0.0
2017-Mar-27 08:33N 60°26' E 006°26'0 0.0
2017-Mar-27 07:33N 60°26' E 006°26'0 0.0
2017-Mar-27 06:33N 60°26' E 006°26'0 0.0
2017-Mar-27 05:33N 60°26' E 006°26'0 0.0
2017-Mar-27 03:24N 60°26' E 006°26'0 0.0
2017-Mar-27 02:33N 60°26' E 006°26'0 0.0
2017-Mar-27 01:33N 60°26' E 006°26'0 0.0
2017-Mar-27 00:33N 60°26' E 006°26'0 0.0
2017-Mar-26 23:33N 60°26' E 006°26'0 0.0
2017-Mar-26 22:33N 60°26' E 006°26'0 0.0
2017-Mar-26 21:33N 60°26' E 006°26'0 0.0
2017-Mar-26 20:33N 60°26' E 006°26'0 0.0
2017-Mar-26 19:33N 60°26' E 006°26'0 0.0
2017-Mar-26 18:33N 60°26' E 006°26'0 0.0
2017-Mar-26 17:33N 60°26' E 006°26'0 0.0
2017-Mar-26 16:33N 60°26' E 006°26'0 0.0
2017-Mar-26 15:33N 60°26' E 006°26'0 0.0
2017-Mar-26 14:33N 60°26' E 006°26'0 0.0
2017-Mar-26 13:33N 60°26' E 006°26'0 0.0
2017-Mar-26 12:33N 60°26' E 006°26'0 0.0
2017-Mar-26 11:33N 60°26' E 006°26'0 0.0
2017-Mar-26 10:33N 60°26' E 006°26'0 0.0
2017-Mar-26 09:33N 60°26' E 006°26'0 0.0
2017-Mar-26 08:33N 60°26' E 006°26'0 0.0
2017-Mar-26 07:33N 60°26' E 006°26'0 0.0
2017-Mar-26 06:33N 60°26' E 006°26'0 0.0
2017-Mar-26 05:33N 60°26' E 006°26'0 0.0
2017-Mar-26 04:33N 60°26' E 006°26'0 0.0
2017-Mar-26 03:33N 60°26' E 006°26'0 0.0
2017-Mar-26 02:33N 60°26' E 006°26'0 0.0
2017-Mar-26 01:33N 60°26' E 006°26'0 0.3
2017-Mar-26 00:33N 60°26' E 006°26'9 9.0
2017-Mar-25 23:33N 60°19' E 006°14'10 9.8
2017-Mar-25 22:33N 60°10' E 006°05'10 9.9
2017-Mar-25 21:33N 60°01' E 005°56'1010.2
2017-Mar-25 20:33N 59°53' E 005°43'1010.3
2017-Mar-25 19:33N 59°45' E 005°31'1010.1
2017-Mar-25 18:33N 59°37' E 005°18'9 9.5
2017-Mar-25 17:33N 59°28' E 005°13'1010.0
2017-Mar-25 16:33N 59°19' E 005°20'9 8.8
2017-Mar-25 15:33N 59°10' E 005°22'8 7.9
2017-Mar-25 14:34N 59°02' E 005°20'9 8.6
2017-Mar-25 13:34N 58°54' E 005°17'9 8.6
2017-Mar-25 12:34N 58°45' E 005°15'9 8.9
2017-Mar-25 11:33N 58°36' E 005°12'207 8.9
2017-Mar-24 12:27N 55°10' E 005°18'9 9.6
2017-Mar-24 11:31N 55°01' E 005°17'195 8.5
2017-Mar-23 12:33N 51°58' E 003°23'1010.0
2017-Mar-23 11:33N 51°49' E 003°18'8 7.6
2017-Mar-23 10:33N 51°41' E 003°19'1010.5
2017-Mar-23 09:33N 51°32' E 003°26'9 8.8
2017-Mar-23 08:29N 51°26' E 003°38'3 0.2
2017-Mar-22 15:08N 51°27' E 003°42'1 0.0
2017-Mar-21 16:08N 51°28' E 003°42'4 5.2
2017-Mar-21 15:25N 51°26' E 003°36'88 8.7
2017-Mar-21 05:21N 52°34' E 002°06'8 9.7
2017-Mar-21 04:33N 52°40' E 001°59'1010.3
2017-Mar-21 03:34N 52°48' E 001°49'1111.1
2017-Mar-21 02:34N 52°57' E 001°37'1111.2
2017-Mar-21 01:33N 53°05' E 001°24'1111.1
2017-Mar-21 00:33N 53°13' E 001°11'2210.8
2017-Mar-20 22:33N 53°25' E 000°41'1110.9
2017-Mar-20 21:33N 53°29' E 000°24'9 9.5
2017-Mar-20 20:33N 53°33' E 000°09'8 8.5
2017-Mar-20 19:33N 53°36' W 000°04'5 4.7
2017-Mar-20 18:33N 53°38' W 000°11'0 0.3
2017-Mar-20 17:32N 53°38' W 000°12'0 0.0
2017-Mar-20 16:29N 53°38' W 000°12'0 0.0
2017-Mar-20 15:32N 53°38' W 000°12'0 0.0
2017-Mar-20 13:23N 53°38' W 000°12'0 0.0
2017-Mar-19 22:17N 53°38' W 000°12'0 0.0
2017-Mar-19 21:29N 53°38' W 000°12'0 0.0
2017-Mar-19 19:05N 53°38' W 000°12'0 0.0
2017-Mar-19 18:32N 53°38' W 000°12'0 0.0
2017-Mar-19 17:32N 53°38' W 000°12'0 0.0
2017-Mar-19 16:20N 53°38' W 000°12'0 0.0
2017-Mar-19 15:24N 53°38' W 000°12'1 0.7
2017-Mar-19 14:34N 53°38' W 000°11'7 6.6
2017-Mar-19 13:33N 53°35' W 000°01'7 7.2
2017-Mar-19 12:33N 53°33' E 000°11'8 8.1
2017-Mar-19 11:33N 53°36' E 000°23'0 0.1
2017-Mar-19 10:32N 53°36' E 000°24'0 0.1
2017-Mar-19 09:29N 53°36' E 000°24'0 0.0
2017-Mar-19 08:32N 53°36' E 000°24'0 0.0
2017-Mar-19 07:33N 53°36' E 000°24'5 4.6
2017-Mar-19 06:25N 53°41' E 000°22'19 6.4
2017-Mar-19 03:27N 53°59' E 000°10'7 8.1
2017-Mar-19 02:33N 54°05' E 000°06'8 8.0
2017-Mar-19 01:33N 54°12' W 000°00'8 8.0
2017-Mar-19 00:33N 54°18' W 000°09'8 7.9
2017-Mar-18 23:33N 54°24' W 000°18'7 7.3
2017-Mar-18 22:33N 54°30' W 000°27'32 8.0
2017-Mar-18 18:33N 54°51' W 001°08'8 6.1
2017-Mar-18 17:11N 54°54' W 001°22'  

Dump ship's entire track history